Duckwater, Nevada Weather observations

Data are for 10 minute period ending at time listed.
 Day   Time   Solar   Ave.   Ave.  Ave.  Vector  Max.   Baro.   Total    
  of    of     Rad.   Air    Rel.  Wind   Wind   Wind  Press.  Precip.   
Year   Day            Temp.  Hum.  Speed  Dir.   Gust                    
2016   (PST)   w/m2    F      %     mph   deg.    mph    mb.     in.    
-----------------------------------------------------------------------
 336   19:10      0   25.6    64    8.1   336    13.5   834.3   0.00  
 336   19:20      0   24.9    66    8.1   337    11.9   834.3   0.00  
 336   19:30      0   24.3    68    7.9   344    11.3   834.4   0.00  
 336   19:40      0   23.8    70    8.7   341    13.4   834.4   0.00  
 336   19:50      0   23.6    69    9.1   349    12.9   834.4   0.00  
 336   20:00      0   23.8    68    8.6   349    11.3   834.5   0.00  
 336   20:10      0   23.8    67    8.5   353    12.1   834.6   0.00  
 336   20:20      0   23.5    68    7.9   357    12.5   834.6   0.00  
 336   20:30      0   23.4    69    6.8     7    11.2   834.6   0.00  
 336   20:40      0   23.3    68    7.1     1    11.1   834.8   0.00  
 336   20:50      0   23.5    67    6.6   358     9.9   834.8   0.00  
 336   21:00      0   23.6    66    7.3   360    14.0   834.9   0.00  
 336   21:10      0   23.8    64    8.9   350    12.9   834.9   0.00  
 336   21:20      0   23.8    64    7.2   350    11.5   835.1   0.00  
 336   21:30      0   23.6    64    6.9   352    11.4   835.1   0.00  
 336   21:40      0   23.7    64    7.9   354    10.9   835.2   0.00  
 336   21:50      0   23.6    65    9.4   352    13.8   835.3   0.00  
 336   22:00      0   23.9    64   10.9   356    15.3   835.4   0.00  
 336   22:10      0   24.1    64   10.8   352    15.3   835.5   0.00  
 336   22:20      0   23.6    67    7.8   344    12.7   835.5   0.00  
 336   22:30      0   23.0    69    6.8   332    10.7   835.6   0.00  
 336   22:40      0   22.3    69    6.8   334     9.4   835.7   0.00  
 336   22:50      0   21.8    70    6.7   340    10.1   835.7   0.00  
 336   23:00      0   21.5    71    7.1   346    10.1   835.7   0.00  
 336   23:10      0   21.0    72    7.1   349     9.9   835.8   0.00  
 336   23:20      0   20.9    71    7.5   351    10.4   835.8   0.00  
 336   23:30      0   21.0    71    7.7   352    11.5   835.7   0.00  
 336   23:40      0   20.8    72    7.2   353     9.6   835.7   0.00  
 336   23:50      0   20.4    72    8.0   350    12.0   835.7   0.00  
 337    0:00      0   20.0    73    7.8   355    11.0   835.6   0.00  
 337    0:10      0   19.6    75    7.2   356    10.2   835.6   0.00  
 337    0:20      0   20.0    74    8.6   344    11.5   835.6   0.00  
 337    0:30      0   20.1    73    9.8   336    15.7   835.6   0.00  
 337    0:40      0   20.0    72   11.2   341    15.6   835.6   0.00  
 337    0:50      0   19.6    72   10.2   356    14.2   835.6   0.00  
 337    1:00      0   18.7    74    9.5   360    13.4   835.6   0.00  
 337    1:10      0   18.6    75    9.9     0    13.2   835.6   0.00  
 337    1:20      0   18.1    76   10.3     4    15.1   835.6   0.00  
 337    1:30      0   18.0    75    9.7   357    15.1   835.7   0.00  
 337    1:40      0   18.5    75   10.9   358    16.2   835.7   0.00  
 337    1:50      0   19.0    73    9.8     3    14.0   835.7   0.00  
 337    2:00      0   18.9    74   11.1   353    15.9   835.6   0.00  
 337    2:10      0   18.9    74   12.4   355    17.5   835.6   0.00  
 337    2:20      0   19.0    74   12.2   351    17.5   835.5   0.00  
 337    2:30      0   19.1    74   12.3   353    16.4   835.4   0.00  
 337    2:40      0   19.5    74   12.3   352    17.0   835.5   0.00  
 337    2:50      0   19.4    75   11.5   348    16.5   835.3   0.00  
 337    3:00      0   19.3    76   10.5   356    15.1   835.4   0.00  
 337    3:10      0   19.4    76   10.5   358    15.9   835.4   0.00  
 337    3:20      0   19.2    76   10.8   356    16.1   835.3   0.00  
 337    3:30      0   19.1    77   11.1   356    15.8   835.4   0.00  
 337    3:40      0   19.4    76   10.5     4    15.7   835.4   0.00  
 337    3:50      0   19.7    76   10.2     5    14.2   835.5   0.00  
 337    4:00      0   19.6    76    9.1   359    14.0   835.5   0.00  
 337    4:10      0   19.6    77    8.4   359    13.1   835.6   0.00  
 337    4:20      0   19.8    77    8.4   353    11.3   835.6   0.00  
 337    4:30      0   19.6    77    7.9   350    11.0   835.6   0.00  
 337    4:40      0   19.2    79    6.7   354    12.1   835.5   0.00  
 337    4:50      0   18.4    80    6.3   359     9.4   835.6   0.00  
 337    5:00      0   18.9    80    6.5     7     9.8   835.7   0.00  
 337    5:10      0   18.7    79    6.5     6     9.6   835.7   0.00  
 337    5:20      0   18.6    79    7.0     8     9.6   835.8   0.00  
 337    5:30      0   18.7    79    6.4     8     9.0   835.8   0.00  
 337    5:40      0   18.0    80    5.6    11     8.2   835.9   0.00  
 337    5:50      0   17.4    81    6.6     8     9.1   836.1   0.00  
 337    6:00      0   17.3    82    6.5     4     9.1   836.2   0.00  
 337    6:10      0   17.7    80    8.0   357    11.7   836.3   0.00  
 337    6:20      0   17.1    81    8.4   348    12.3   836.4   0.00  
 337    6:30      0   16.8    82    8.9   351    13.7   836.5   0.00  
 337    6:40      4   17.2    81    8.6   354    11.8   836.6   0.00  
 337    6:50      4   16.5    82    7.5   356    10.8   836.7   0.00  
 337    7:00      8   16.3    83    7.5   353    10.9   836.8   0.00  
 337    7:10      8   16.6    83    8.2   340    11.4   837.1   0.00  
 337    7:20     55   17.3    82    7.1   338    10.0   837.3   0.00  
 337    7:30     92   18.2    80    7.7   338    11.4   837.5   0.00  
 337    7:40    126   19.0    78    9.3   348    12.9   837.7   0.00  
 337    7:50    154   19.9    77    8.0   343    12.8   837.7   0.00  
 337    8:00    181   20.8    75   10.4   348    17.1   837.9   0.00  
 337    8:10    207   21.6    73    9.8   351    15.6   837.9   0.00  
 337    8:20    233   22.5    72   10.8   352    15.3   838.1   0.00  
 337    8:30    259   23.2    69   10.5   353    16.2   838.1   0.00  
 337    8:40    284   24.1    67   10.7   352    16.8   838.2   0.00  
 337    8:50    309   24.6    65   13.2   349    19.4   838.3   0.00  
 337    9:00    333   25.1    65   12.6   350    18.3   838.3   0.00  
 337    9:10    355   25.8    64   13.7   354    20.3   838.3   0.00  
 337    9:20    377   26.0    63   14.6   354    23.1   838.4   0.00  
 337    9:30    398   26.7    61   12.8   356    20.7   838.5   0.00  
 337    9:40    417   27.0    60   13.8   359    21.3   838.6   0.00  
 337    9:50    435   27.5    58   13.4     3    21.2   838.6   0.00  
 337   10:00    451   27.9    57   14.0   356    20.8   838.7   0.00  
 337   10:10    465   27.9    56   14.4   354    20.7   838.7   0.00  
 337   10:20    478   28.0    55   14.4   353    20.2   838.8   0.00  
 337   10:30    489   28.5    54   14.8   344    20.8   838.7   0.00  
 337   10:40    500   29.2    51   14.7   349    20.6   838.7   0.00  
 337   10:50    508   29.2    52   16.0   346    23.2   838.6   0.00  
 337   11:00    513   29.4    51   15.3   347    24.9   838.5   0.00  
 337   11:10    518   29.4    50   16.3   347    24.0   838.5   0.00  
 337   11:20    521   29.7    50   15.7   345    24.5   838.4   0.00  
 337   11:30    522   30.0    49   16.4   347    24.8   838.3   0.00  
 337   11:40    523   30.2    48   16.3   347    23.4   838.1   0.00  
 337   11:50    523   30.2    48   18.0   343    24.5   838.1   0.00  
 337   12:00    522   30.5    47   17.7   351    24.7   838.0   0.00  
 337   12:10    516   30.8    47   17.0   350    24.5   837.9   0.00  
 337   12:20    509   31.0    47   16.9   352    24.0   837.8   0.00  
 337   12:30    502   31.4    45   16.6   350    25.0   837.6   0.00  
 337   12:40    493   31.2    45   18.1   351    25.4   837.5   0.00  
 337   12:50    483   31.6    44   16.4   351    22.8   837.5   0.00  
 337   13:00    470   32.1    44   15.0   351    21.2   837.5   0.00  
 337   13:10    455   31.9    42   14.7   350    21.7   837.6   0.00  
 337   13:20    439   32.7    42   13.8   352    19.8   837.6   0.00  
 337   13:30    421   32.7    41   15.0   354    22.9   837.6   0.00  
 337   13:40    403   32.4    42   15.4   349    21.9   837.6   0.00  
 337   13:50    382   32.5    41   16.2   350    21.9   837.5   0.00  
 337   14:00    361   32.8    42   14.2   349    20.9   837.6   0.00  
 337   14:10    339   32.6    42   14.3   343    21.0   837.7   0.00  
 337   14:20    315   32.4    42   15.2   344    23.2   837.6   0.00  
 337   14:30    291   32.3    42   14.9   342    20.8   837.7   0.00  
 337   14:40    266   32.5    42   13.1   344    19.7   837.7   0.00  
 337   14:50    240   32.6    42   13.2   344    18.7   837.7   0.00  
 337   15:00    214   32.5    42   13.0   346    20.7   837.8   0.00  
 337   15:10    188   32.4    42   13.3   348    18.9   837.9   0.00  
 337   15:20    162   32.1    42   14.0   346    19.8   837.9   0.00  
 337   15:30    135   31.8    43   13.4   346    19.7   837.9   0.00  
 337   15:40    102   31.4    43   14.0   347    19.3   838.0   0.00  
 337   15:50     68   30.8    47   10.9   338    17.0   838.0   0.00  
 337   16:00     30   29.9    49   11.7   337    17.2   838.0   0.00  
 337   16:10      8   28.6    51   11.7   338    17.2   838.1   0.00  
 337   16:20      7   27.9    53   10.1   339    15.9   838.1   0.00  
 337   16:30      4   27.3    56   11.4   348    15.5   838.3   0.00  
 337   16:40      2   26.4    60    9.9   352    14.2   838.3   0.00  
 337   16:50      0   25.6    62    9.2   356    13.2   838.3   0.00  
 337   17:00      0   25.2    62    9.8   356    14.8   838.4   0.00  
 337   17:10      0   25.1    61    8.9   358    13.0   838.5   0.00  
 337   17:20      0   24.7    62    8.2   356    11.6   838.6   0.00  
 337   17:30      0   24.3    64    7.9   355    11.8   838.5   0.00  
 337   17:40      0   23.9    64    8.2   354    11.0   838.6   0.00  
 337   17:50      0   23.6    65    7.6   358    10.7   838.7   0.00  
 337   18:00      0   23.5    65    8.2   357    12.3   838.9   0.00  
 337   18:10      0   23.3    66    9.4   354    13.2   839.0   0.00  
 337   18:20      0   23.2    66    9.7   357    14.6   839.2   0.00  
 337   18:30      0   23.2    66   10.6   356    15.0   839.4   0.00  
 337   18:40      0   23.2    66   10.9   356    15.8   839.5   0.00  
 337   18:50      0   23.1    67   10.9   358    15.3   839.5   0.00  
 337   19:00      0   22.7    68   11.1   354    15.9   839.7   0.00  

Return to Duckwater graphs page.


Western Regional Climate Center,wrcc@dri.edu